createdAt,value
2022-12-14T00:02:09.110Z,38.05
2022-12-14T00:04:39.874Z,41.17
2022-12-14T00:07:12.938Z,39.97
2022-12-14T00:09:41.639Z,38.35
2022-12-14T00:12:09.648Z,39.38
2022-12-14T00:14:39.432Z,36.88
2022-12-14T00:17:13.195Z,35.38
2022-12-14T00:19:40.850Z,37.88
2022-12-14T00:22:08.544Z,38.63
2022-12-14T00:24:37.308Z,35.20
2022-12-14T00:27:04.930Z,36.75
2022-12-14T00:29:39.084Z,34.40
2022-12-14T00:32:06.070Z,38.25
2022-12-14T00:34:40.836Z,36.90
2022-12-14T00:37:12.597Z,36.53
2022-12-14T00:39:39.914Z,36.60
2022-12-14T00:42:08.512Z,40.30
2022-12-14T00:44:35.889Z,42.85
2022-12-14T00:47:02.950Z,33.80
2022-12-14T00:49:30.681Z,37.63
2022-12-14T00:51:57.619Z,37.80
2022-12-14T00:54:25.548Z,36.03
2022-12-14T00:56:53.080Z,40.95
2022-12-14T00:59:27.408Z,38.83
2022-12-14T01:01:58.107Z,36.75
2022-12-14T01:04:31.869Z,36.35
2022-12-14T01:07:00.914Z,37.33
2022-12-14T01:09:29.421Z,34.92
2022-12-14T01:12:24.030Z,35.85
2022-12-14T01:14:51.957Z,34.88
2022-12-14T01:17:20.409Z,36.75
2022-12-14T01:19:49.142Z,37.75
2022-12-14T01:22:17.596Z,36.17
2022-12-14T01:24:47.947Z,37.42
2022-12-14T01:27:14.815Z,36.80
2022-12-14T01:29:42.814Z,33.65
2022-12-14T01:32:14.106Z,35.00
2022-12-14T01:34:42.594Z,32.92
2022-12-14T01:37:09.597Z,36.10
2022-12-14T01:39:36.548Z,35.88
2022-12-14T01:42:04.000Z,34.85
2022-12-14T01:44:31.290Z,31.35
2022-12-14T01:47:28.001Z,35.20
2022-12-14T01:50:04.900Z,37.22
2022-12-14T01:52:45.745Z,37.67
2022-12-14T01:55:28.038Z,33.45
2022-12-14T01:58:20.512Z,35.53
2022-12-14T02:00:50.387Z,33.95
2022-12-14T02:03:32.658Z,34.30
2022-12-14T02:06:29.043Z,36.65
2022-12-14T02:09:00.693Z,35.03
2022-12-14T02:12:00.204Z,36.42
2022-12-14T02:14:27.255Z,33.78
2022-12-14T02:16:56.072Z,35.65
2022-12-14T02:19:23.374Z,36.80
2022-12-14T02:22:08.744Z,36.05
2022-12-14T02:24:55.376Z,31.92
2022-12-14T02:27:31.236Z,33.95
2022-12-14T02:30:08.914Z,35.13
2022-12-14T02:32:42.959Z,35.38
2022-12-14T02:35:42.519Z,32.65
2022-12-14T02:38:35.639Z,34.20
2022-12-14T02:41:40.560Z,30.42
2022-12-14T02:44:39.625Z,33.85
2022-12-14T02:47:33.551Z,36.13
2022-12-14T02:50:19.855Z,33.33
2022-12-14T02:53:16.167Z,35.25
2022-12-14T02:55:49.168Z,29.02
2022-12-14T02:58:26.138Z,33.95
2022-12-14T03:00:55.834Z,34.50
2022-12-14T03:03:25.045Z,35.97
2022-12-14T03:05:57.273Z,38.88
2022-12-14T03:08:26.351Z,36.25
2022-12-14T03:10:58.014Z,37.58
2022-12-14T03:13:52.690Z,41.95
2022-12-14T03:16:24.053Z,36.50
2022-12-14T03:19:10.612Z,39.75
2022-12-14T03:21:55.082Z,36.85
2022-12-14T03:24:30.825Z,40.85
2022-12-14T03:27:04.851Z,39.05
2022-12-14T03:29:44.631Z,42.42
2022-12-14T03:32:19.492Z,40.65
2022-12-14T03:34:52.465Z,40.90
2022-12-14T03:37:32.702Z,42.53
2022-12-14T03:40:00.862Z,41.88
2022-12-14T03:42:40.209Z,45.45
2022-12-14T03:45:39.869Z,42.35
2022-12-14T03:48:23.381Z,49.53
2022-12-14T03:51:16.204Z,46.85
2022-12-14T03:54:13.934Z,45.80
2022-12-14T03:56:52.758Z,48.53
2022-12-14T03:59:36.368Z,46.75
2022-12-14T04:02:21.793Z,42.50
2022-12-14T04:05:08.249Z,52.03
2022-12-14T04:08:08.732Z,50.13
2022-12-14T04:11:06.070Z,45.95
2022-12-14T04:14:22.332Z,46.05
2022-12-14T04:17:11.248Z,51.10
2022-12-14T04:20:00.364Z,48.47
2022-12-14T04:22:34.297Z,48.53
2022-12-14T04:25:24.922Z,46.22
2022-12-14T04:28:40.618Z,48.17
2022-12-14T04:31:17.098Z,46.50
2022-12-14T04:33:53.754Z,45.50
2022-12-14T04:36:47.069Z,52.13
2022-12-14T04:39:28.087Z,50.53
2022-12-14T04:41:58.998Z,47.78
2022-12-14T04:44:38.264Z,54.25
2022-12-14T04:47:09.966Z,55.00
2022-12-14T04:49:46.525Z,55.55
2022-12-14T04:52:37.561Z,55.47
2022-12-14T04:55:37.393Z,54.97
2022-12-14T04:58:13.037Z,60.28
2022-12-14T05:00:59.136Z,52.95
2022-12-14T05:03:47.069Z,50.25
2022-12-14T05:06:26.786Z,56.70
2022-12-14T05:09:17.175Z,51.45
2022-12-14T05:11:54.533Z,50.83
2022-12-14T05:14:28.840Z,52.67
2022-12-14T05:17:08.384Z,49.03
2022-12-14T05:19:37.898Z,54.85
2022-12-14T05:22:07.408Z,53.67
2022-12-14T05:24:34.431Z,52.70
2022-12-14T05:27:02.150Z,53.65
2022-12-14T05:29:29.073Z,53.53
2022-12-14T05:31:56.409Z,52.45
2022-12-14T05:34:24.052Z,56.20
2022-12-14T05:36:51.001Z,57.88
2022-12-14T05:39:19.057Z,53.45
2022-12-14T05:41:45.923Z,55.70
2022-12-14T05:44:13.494Z,53.83
2022-12-14T05:46:42.382Z,54.58
2022-12-14T05:49:11.888Z,51.90
2022-12-14T05:51:44.647Z,54.35
2022-12-14T05:54:11.557Z,54.53
2022-12-14T05:56:40.933Z,53.28
2022-12-14T05:59:07.915Z,56.58
2022-12-14T06:01:36.714Z,56.85
2022-12-14T06:04:04.298Z,59.13
2022-12-14T06:06:33.632Z,57.92
2022-12-14T06:09:04.160Z,58.45
2022-12-14T06:11:31.509Z,54.35
2022-12-14T06:13:58.620Z,56.42
2022-12-14T06:16:26.931Z,56.15
2022-12-14T06:18:56.802Z,63.10
2022-12-14T06:21:28.406Z,56.65
2022-12-14T06:23:56.347Z,55.40
2022-12-14T06:26:23.665Z,63.20
2022-12-14T06:28:53.871Z,65.13
2022-12-14T06:31:45.028Z,53.88
2022-12-14T06:34:23.589Z,59.80
2022-12-14T06:36:56.042Z,53.28
2022-12-14T06:39:26.840Z,56.45
2022-12-14T06:41:55.791Z,61.00
2022-12-14T06:44:25.272Z,60.53
2022-12-14T06:46:55.438Z,52.30
2022-12-14T06:49:28.462Z,58.63
2022-12-14T06:51:56.031Z,55.85
2022-12-14T06:54:23.447Z,58.20
2022-12-14T06:56:50.815Z,55.70
2022-12-14T06:59:19.910Z,53.83
2022-12-14T07:01:49.717Z,58.42
2022-12-14T07:04:26.260Z,57.30
2022-12-14T07:06:53.338Z,56.67
2022-12-14T07:09:20.549Z,55.78
2022-12-14T07:11:51.564Z,60.65
2022-12-14T07:14:18.367Z,49.28
2022-12-14T07:16:55.144Z,59.22
2022-12-14T07:19:22.596Z,57.35
2022-12-14T07:21:49.544Z,59.13
2022-12-14T07:24:18.001Z,54.90
2022-12-14T07:26:46.006Z,54.03
2022-12-14T07:29:15.262Z,54.63
2022-12-14T07:31:42.625Z,57.53
2022-12-14T07:34:13.793Z,56.38
2022-12-14T07:36:40.683Z,60.45
2022-12-14T07:39:13.915Z,55.05
2022-12-14T07:41:43.580Z,58.88
2022-12-14T07:44:11.481Z,55.78
2022-12-14T07:46:38.372Z,54.63
2022-12-14T07:49:07.551Z,57.53
2022-12-14T07:51:36.783Z,57.95
2022-12-14T07:54:06.273Z,53.28
2022-12-14T07:56:36.529Z,55.35
2022-12-14T07:59:08.822Z,56.70
2022-12-14T08:01:42.333Z,59.88
2022-12-14T08:04:17.137Z,53.53
2022-12-14T08:06:54.206Z,51.40
2022-12-14T08:09:23.338Z,58.47
2022-12-14T08:11:58.932Z,51.85
2022-12-14T08:14:25.992Z,52.53
2022-12-14T08:17:13.054Z,52.35
2022-12-14T08:19:48.785Z,52.63
2022-12-14T08:22:15.708Z,54.47
2022-12-14T08:24:49.302Z,47.05
2022-12-14T08:27:16.618Z,53.70
2022-12-14T08:29:49.654Z,53.00
2022-12-14T08:32:19.783Z,57.10
2022-12-14T08:34:48.514Z,53.40
2022-12-14T08:37:15.379Z,54.92
2022-12-14T08:39:43.985Z,56.70
2022-12-14T08:42:16.527Z,53.55
2022-12-14T08:44:48.352Z,57.65
2022-12-14T08:47:16.807Z,56.97
2022-12-14T08:49:46.849Z,57.78
2022-12-14T08:52:14.312Z,56.00
2022-12-14T08:54:42.945Z,57.25
2022-12-14T08:57:11.500Z,52.15
2022-12-14T09:02:35.611Z,52.33
2022-12-14T09:05:04.331Z,53.92
2022-12-14T09:07:32.063Z,53.45
2022-12-14T09:10:00.795Z,57.90
2022-12-14T09:12:28.915Z,55.13
2022-12-14T09:14:56.026Z,53.72
2022-12-14T09:17:32.226Z,57.90
2022-12-14T09:20:05.778Z,53.53
2022-12-14T09:22:35.849Z,55.90
2022-12-14T09:25:05.819Z,53.78
2022-12-14T09:27:36.439Z,54.70
2022-12-14T09:30:10.875Z,52.55
2022-12-14T09:32:41.864Z,48.20
2022-12-14T09:35:10.835Z,51.00
2022-12-14T09:37:40.999Z,45.50
2022-12-14T09:40:10.978Z,47.47
2022-12-14T09:42:59.992Z,45.35
2022-12-14T09:45:38.458Z,50.00
2022-12-14T09:48:21.426Z,46.13
2022-12-14T09:50:53.323Z,48.53
2022-12-14T09:53:22.295Z,47.88
2022-12-14T09:55:53.886Z,55.80
2022-12-14T09:58:30.202Z,46.00
2022-12-14T10:01:12.196Z,50.38
2022-12-14T10:04:07.528Z,49.38
2022-12-14T10:07:16.614Z,50.00
2022-12-14T10:10:14.091Z,48.33
2022-12-14T10:13:14.276Z,58.85
2022-12-14T10:15:53.661Z,48.45
2022-12-14T10:18:58.114Z,56.33
2022-12-14T10:21:26.122Z,51.80
2022-12-14T10:23:58.919Z,51.83
2022-12-14T10:26:39.416Z,51.05
2022-12-14T10:29:14.103Z,51.65
2022-12-14T10:31:50.568Z,52.10
2022-12-14T10:34:19.778Z,52.38
2022-12-14T10:37:27.060Z,55.47
2022-12-14T10:40:17.755Z,57.10
2022-12-14T10:43:32.198Z,51.50
2022-12-14T10:46:15.028Z,55.55
2022-12-14T10:49:01.785Z,55.70
2022-12-14T10:54:28.939Z,61.17
2022-12-14T10:57:00.640Z,54.10
2022-12-14T10:59:46.869Z,53.70
2022-12-14T11:02:32.312Z,52.92
2022-12-14T11:05:10.467Z,56.63
2022-12-14T11:07:46.084Z,56.97
2022-12-14T11:10:26.844Z,55.95
2022-12-14T11:13:20.589Z,52.65
2022-12-14T11:15:49.651Z,51.42
2022-12-14T11:18:16.473Z,51.35
2022-12-14T11:21:06.576Z,49.05
2022-12-14T11:23:42.846Z,52.88
2022-12-14T11:26:23.845Z,47.58
2022-12-14T11:28:57.017Z,49.67
2022-12-14T11:31:35.671Z,53.47
2022-12-14T11:34:15.583Z,48.13
2022-12-14T11:36:50.597Z,51.40
2022-12-14T11:39:27.699Z,51.05
2022-12-14T11:42:05.308Z,46.58
2022-12-14T11:44:36.931Z,47.47
2022-12-14T11:47:16.377Z,48.92
2022-12-14T11:49:51.001Z,47.35
2022-12-14T11:52:44.112Z,47.67
2022-12-14T11:55:24.685Z,45.63
2022-12-14T11:57:59.441Z,44.88
2022-12-14T12:00:42.511Z,45.85
2022-12-14T12:03:28.627Z,43.67
2022-12-14T12:06:02.544Z,41.97
2022-12-14T12:08:33.518Z,44.90
2022-12-14T12:11:04.669Z,43.42
2022-12-14T12:13:39.905Z,43.67
2022-12-14T12:16:14.864Z,46.17
2022-12-14T12:19:12.097Z,41.33
2022-12-14T12:21:45.798Z,42.72
2022-12-14T12:25:08.660Z,40.42
2022-12-14T12:27:36.563Z,41.97
2022-12-14T12:30:43.950Z,42.05
2022-12-14T12:33:27.607Z,39.05
2022-12-14T12:35:56.973Z,36.92
2022-12-14T12:38:50.097Z,38.30
2022-12-14T12:41:46.451Z,37.75
2022-12-14T12:44:49.690Z,35.97
2022-12-14T12:47:28.235Z,37.38
2022-12-14T12:50:06.630Z,36.15
2022-12-14T12:53:04.482Z,38.72
2022-12-14T12:55:39.828Z,32.50
2022-12-14T12:58:10.086Z,35.28
2022-12-14T13:00:41.841Z,37.92
2022-12-14T13:03:39.695Z,34.47
2022-12-14T13:06:50.521Z,34.90
2022-12-14T13:09:23.632Z,34.35
2022-12-14T13:11:56.994Z,36.35
2022-12-14T13:14:34.159Z,36.35
2022-12-14T13:17:05.882Z,35.25
2022-12-14T13:19:51.648Z,32.45
2022-12-14T13:22:47.795Z,31.30
2022-12-14T13:26:01.995Z,35.22
2022-12-14T13:28:48.440Z,34.05
2022-12-14T13:31:30.215Z,30.58
2022-12-14T13:34:04.360Z,32.85
2022-12-14T13:36:37.740Z,29.13
2022-12-14T13:39:08.149Z,28.88
2022-12-14T13:42:02.809Z,31.05
2022-12-14T13:44:54.602Z,29.40
2022-12-14T13:47:30.677Z,27.52
2022-12-14T13:53:00.026Z,27.48
2022-12-14T13:55:48.827Z,31.52
2022-12-14T13:58:28.400Z,29.65
2022-12-14T14:01:02.680Z,26.13
2022-12-14T14:03:37.305Z,29.77
2022-12-14T14:06:20.069Z,30.15
2022-12-14T14:08:53.579Z,27.40
2022-12-14T14:11:39.415Z,27.42
2022-12-14T14:14:27.801Z,30.10
2022-12-14T14:17:08.725Z,32.08
2022-12-14T14:19:41.055Z,30.90
2022-12-14T14:22:23.331Z,33.25
2022-12-14T14:24:57.673Z,34.95
2022-12-14T14:27:35.197Z,31.92
2022-12-14T14:30:03.181Z,32.85
2022-12-14T14:32:42.997Z,33.22
2022-12-14T14:35:35.117Z,36.45
2022-12-14T14:38:24.061Z,35.42
2022-12-14T14:41:17.408Z,34.25
2022-12-14T14:43:58.814Z,33.92
2022-12-14T14:46:39.212Z,35.45
2022-12-14T14:49:07.079Z,35.10
2022-12-14T14:51:38.393Z,36.45
2022-12-14T14:55:06.475Z,37.47
2022-12-14T14:57:48.007Z,40.00
2022-12-14T15:00:15.093Z,40.47
2022-12-14T15:02:43.555Z,40.50
2022-12-14T15:08:34.376Z,43.22
2022-12-14T15:11:09.769Z,43.53
2022-12-14T15:14:04.280Z,39.92
2022-12-14T15:16:43.852Z,40.53
2022-12-14T15:19:24.006Z,48.35
2022-12-14T15:21:57.625Z,44.00
2022-12-14T15:24:25.981Z,42.97
2022-12-14T15:26:53.453Z,42.50
2022-12-14T15:29:26.617Z,43.70
2022-12-14T15:32:01.110Z,43.45
2022-12-14T15:34:29.202Z,42.15
2022-12-14T15:36:57.776Z,43.85
2022-12-14T15:39:31.943Z,40.25
2022-12-14T15:42:16.787Z,43.72
2022-12-14T15:44:51.292Z,41.58
2022-12-14T15:47:31.349Z,40.00
2022-12-14T15:50:22.345Z,42.47
2022-12-14T15:52:50.822Z,43.47
2022-12-14T15:55:48.805Z,41.40
2022-12-14T15:58:18.858Z,38.08
2022-12-14T16:00:49.390Z,41.08
2022-12-14T16:03:24.477Z,45.53
2022-12-14T16:05:51.774Z,42.78
2022-12-14T16:08:20.950Z,45.55
2022-12-14T16:10:52.854Z,43.30
2022-12-14T16:13:29.430Z,41.55
2022-12-14T16:15:58.522Z,42.20
2022-12-14T16:18:26.839Z,43.60
2022-12-14T16:21:02.364Z,42.63
2022-12-14T16:23:32.765Z,42.33
2022-12-14T16:26:22.917Z,40.45
2022-12-14T16:29:33.331Z,44.47
2022-12-14T16:32:15.595Z,39.17
2022-12-14T16:35:01.624Z,43.72
2022-12-14T16:37:33.747Z,38.80
2022-12-14T16:40:01.373Z,42.80
2022-12-14T16:42:31.420Z,39.97
2022-12-14T16:44:59.905Z,41.15
2022-12-14T16:54:33.430Z,39.13
2022-12-14T16:57:06.660Z,42.58
2022-12-14T17:00:06.244Z,41.30
2022-12-14T17:02:52.944Z,41.50
2022-12-14T17:05:37.403Z,41.30
2022-12-14T17:08:05.540Z,40.70
2022-12-14T17:10:33.336Z,41.08
2022-12-14T17:13:02.552Z,42.90
2022-12-14T17:15:33.263Z,46.95
2022-12-14T17:18:09.209Z,44.05
2022-12-14T17:20:39.448Z,47.47
2022-12-14T17:23:19.650Z,43.92
2022-12-14T17:25:48.131Z,43.85
2022-12-14T17:28:30.257Z,43.95
2022-12-14T17:30:59.559Z,40.40
2022-12-14T17:33:28.597Z,42.60
2022-12-14T17:36:07.235Z,41.65
2022-12-14T17:38:35.941Z,40.42
2022-12-14T17:41:02.915Z,41.58
2022-12-14T17:43:31.240Z,40.65
2022-12-14T17:46:01.611Z,42.90
2022-12-14T17:48:29.186Z,41.05
2022-12-14T17:50:56.611Z,43.67
2022-12-14T17:53:30.547Z,42.53
2022-12-14T17:55:58.716Z,42.58
2022-12-14T17:58:26.337Z,44.17
2022-12-14T18:01:02.810Z,43.47
2022-12-14T18:03:33.467Z,44.08
2022-12-14T18:06:01.287Z,45.90
2022-12-14T18:08:28.416Z,46.85
2022-12-14T18:11:01.780Z,45.50
2022-12-14T18:13:31.368Z,47.85
2022-12-14T18:16:00.149Z,44.75
2022-12-14T18:18:29.875Z,46.33
2022-12-14T18:21:00.568Z,50.72
2022-12-14T18:23:28.820Z,47.08
2022-12-14T18:26:02.744Z,46.10
2022-12-14T18:28:29.679Z,47.60
2022-12-14T18:31:03.299Z,52.92
2022-12-14T18:33:33.133Z,46.92
2022-12-14T18:36:20.497Z,53.45
2022-12-14T18:38:51.169Z,48.50
2022-12-14T18:41:29.859Z,52.42
2022-12-14T18:43:57.203Z,53.50
2022-12-14T18:46:24.410Z,51.85
2022-12-14T18:48:51.277Z,53.45
2022-12-14T18:51:26.045Z,53.45
2022-12-14T18:53:55.902Z,50.22
2022-12-14T18:56:49.658Z,58.25
2022-12-14T18:59:17.395Z,60.63
2022-12-14T19:01:44.499Z,54.35
2022-12-14T19:04:12.045Z,55.92
2022-12-14T19:06:45.902Z,56.05
2022-12-14T19:09:15.747Z,65.95
2022-12-14T19:11:43.104Z,60.50
2022-12-14T19:14:13.105Z,63.30
2022-12-14T19:16:40.116Z,59.25
2022-12-14T19:19:07.168Z,66.00
2022-12-14T19:21:33.998Z,65.53
2022-12-14T19:24:03.115Z,61.83
2022-12-14T19:26:31.591Z,61.03
2022-12-14T19:28:59.489Z,61.67
2022-12-14T19:31:27.377Z,72.43
2022-12-14T19:33:54.517Z,65.80
2022-12-14T19:36:21.745Z,65.28
2022-12-14T19:38:49.589Z,59.50
2022-12-14T19:41:20.446Z,71.97
2022-12-14T19:43:48.150Z,67.13
2022-12-14T19:46:16.299Z,63.53
2022-12-14T19:48:44.035Z,62.30
2022-12-14T19:51:12.724Z,65.30
2022-12-14T19:53:41.394Z,78.32
2022-12-14T19:56:09.123Z,74.93
2022-12-14T19:58:36.110Z,89.60
2022-12-14T20:01:10.093Z,74.78
2022-12-14T20:03:38.176Z,96.10
2022-12-14T20:06:06.572Z,68.75
2022-12-14T20:08:34.584Z,70.80
2022-12-14T20:11:07.438Z,67.15
2022-12-14T20:13:34.824Z,64.55
2022-12-14T20:16:02.525Z,61.80
2022-12-14T20:18:30.413Z,62.17
2022-12-14T20:21:05.646Z,57.17
2022-12-14T20:23:35.308Z,70.13
2022-12-14T20:26:07.909Z,58.40
2022-12-14T20:28:34.747Z,56.42
2022-12-14T20:31:06.348Z,59.55
2022-12-14T20:33:34.006Z,51.45
2022-12-14T20:36:01.567Z,54.63
2022-12-14T20:38:28.995Z,58.17
2022-12-14T20:41:06.691Z,53.50
2022-12-14T20:43:37.159Z,52.58
2022-12-14T20:46:05.263Z,55.58
2022-12-14T20:48:33.787Z,55.85
2022-12-14T20:51:04.492Z,57.03
2022-12-14T20:53:33.302Z,57.47
2022-12-14T20:56:04.853Z,53.47
2022-12-14T20:58:32.534Z,59.13
2022-12-14T21:01:07.616Z,57.38
2022-12-14T21:03:36.664Z,57.08
2022-12-14T21:06:04.859Z,55.83
2022-12-14T21:08:51.907Z,56.28
2022-12-14T21:11:37.846Z,51.97
2022-12-14T21:14:05.292Z,57.63
2022-12-14T21:16:32.309Z,57.13
2022-12-14T21:19:01.085Z,58.00
2022-12-14T21:21:28.307Z,58.92
2022-12-14T21:23:55.583Z,58.30
2022-12-14T21:26:24.122Z,50.13
2022-12-14T21:28:54.979Z,55.95
2022-12-14T21:31:22.548Z,55.15
2022-12-14T21:33:55.315Z,54.47
2022-12-14T21:36:22.386Z,53.95
2022-12-14T21:38:50.862Z,51.42
2022-12-14T21:41:38.027Z,54.28
2022-12-14T21:44:08.172Z,53.22
2022-12-14T21:46:36.160Z,52.17
2022-12-14T21:49:03.891Z,51.58
2022-12-14T21:51:35.468Z,54.35
2022-12-14T21:54:02.815Z,53.00
2022-12-14T21:57:01.861Z,56.40
2022-12-14T21:59:40.398Z,51.83
2022-12-14T22:02:16.339Z,52.45
2022-12-14T22:04:54.528Z,54.85
2022-12-14T22:07:25.750Z,56.30
2022-12-14T22:09:52.928Z,53.83
2022-12-14T22:12:22.395Z,55.70
2022-12-14T22:14:50.099Z,60.47
2022-12-14T22:17:22.195Z,57.95
2022-12-14T22:19:54.702Z,54.03
2022-12-14T22:22:21.834Z,57.95
2022-12-14T22:24:50.411Z,58.85
2022-12-14T22:27:18.243Z,58.20
2022-12-14T22:29:45.125Z,58.22
2022-12-14T22:32:13.058Z,60.67
2022-12-14T22:34:40.957Z,59.78
2022-12-14T22:37:10.843Z,66.53
2022-12-14T22:39:37.676Z,63.85
2022-12-14T22:42:06.023Z,64.03
2022-12-14T22:44:33.011Z,63.25
2022-12-14T22:47:02.417Z,62.65
2022-12-14T22:49:30.962Z,64.05
2022-12-14T22:51:59.331Z,63.10
2022-12-14T22:54:27.729Z,65.30
2022-12-14T22:57:14.450Z,68.28
2022-12-14T22:59:48.995Z,71.15
2022-12-14T23:02:21.166Z,67.88
2022-12-14T23:04:51.414Z,68.28
2022-12-14T23:07:18.632Z,62.42
2022-12-14T23:10:04.920Z,71.00
2022-12-14T23:12:50.520Z,67.78
2022-12-14T23:15:37.280Z,71.05
2022-12-14T23:18:29.616Z,74.10
2022-12-14T23:21:16.930Z,73.70
2022-12-14T23:24:05.165Z,72.78
2022-12-14T23:26:53.005Z,71.82
2022-12-14T23:29:40.052Z,70.47
2022-12-14T23:32:30.595Z,68.28
2022-12-14T23:35:22.018Z,70.05
2022-12-14T23:38:08.398Z,72.85
2022-12-14T23:40:57.114Z,74.55
2022-12-14T23:43:45.521Z,71.93
2022-12-14T23:46:33.575Z,76.68
2022-12-14T23:49:27.765Z,72.45
2022-12-14T23:52:14.244Z,74.90
2022-12-14T23:54:59.721Z,71.10
2022-12-14T23:57:46.314Z,74.75
